createdAt,value
2018-11-04T00:00:04.031Z,1015.36
2018-11-04T00:01:03.849Z,1015.32
2018-11-04T00:02:03.840Z,1015.35
2018-11-04T00:03:03.837Z,1015.36
2018-11-04T00:04:03.827Z,1015.38
2018-11-04T00:05:03.808Z,1015.36
2018-11-04T00:06:03.802Z,1015.37
2018-11-04T00:07:03.790Z,1015.35
2018-11-04T00:08:03.779Z,1015.36
2018-11-04T00:09:03.783Z,1015.32
2018-11-04T00:10:03.755Z,1015.34
2018-11-04T00:11:03.749Z,1015.30
2018-11-04T00:12:03.731Z,1015.28
2018-11-04T00:13:03.792Z,1015.27
2018-11-04T00:14:03.724Z,1015.27
2018-11-04T00:15:03.707Z,1015.25
2018-11-04T00:16:03.693Z,1015.24
2018-11-04T00:17:03.678Z,1015.21
2018-11-04T00:18:03.665Z,1015.25
2018-11-04T00:19:03.683Z,1015.27
2018-11-04T00:20:03.665Z,1015.18
2018-11-04T00:21:03.646Z,1015.19
2018-11-04T00:22:03.622Z,1015.19
2018-11-04T00:23:03.629Z,1015.16
2018-11-04T00:24:03.698Z,1015.11
2018-11-04T00:25:03.642Z,1015.13
2018-11-04T00:26:03.582Z,1015.10
2018-11-04T00:27:03.599Z,1015.09
2018-11-04T00:28:03.560Z,1015.08
2018-11-04T00:29:03.570Z,1015.06
2018-11-04T00:30:03.544Z,1015.05
2018-11-04T00:31:03.546Z,1015.02
2018-11-04T00:32:03.514Z,1015.01
2018-11-04T00:33:03.516Z,1014.98
2018-11-04T00:34:03.514Z,1014.96
2018-11-04T00:35:03.505Z,1014.94
2018-11-04T00:36:03.489Z,1014.96
2018-11-04T00:37:03.484Z,1014.93
2018-11-04T00:38:03.449Z,1014.93
2018-11-04T00:39:03.442Z,1014.92
2018-11-04T00:40:03.440Z,1014.93
2018-11-04T00:41:03.443Z,1014.96
2018-11-04T00:42:03.428Z,1014.96
2018-11-04T00:43:03.417Z,1014.92
2018-11-04T00:44:03.392Z,1014.89
2018-11-04T00:45:03.466Z,1014.96
2018-11-04T00:46:03.372Z,1014.94
2018-11-04T00:47:03.374Z,1014.86
2018-11-04T00:48:03.366Z,1014.83
2018-11-04T00:49:03.353Z,1014.80
2018-11-04T00:50:03.323Z,1014.78
2018-11-04T00:51:03.312Z,1014.76
2018-11-04T00:52:03.392Z,1014.74
2018-11-04T00:53:03.302Z,1014.76
2018-11-04T00:54:03.292Z,1014.74
2018-11-04T00:55:03.268Z,1014.72
2018-11-04T00:56:03.269Z,1014.76
2018-11-04T00:57:03.253Z,1014.78
2018-11-04T00:58:03.251Z,1014.76
2018-11-04T00:59:03.241Z,1014.73
2018-11-04T01:00:03.246Z,1014.70
2018-11-04T01:01:03.228Z,1014.69
2018-11-04T01:02:03.251Z,1014.66
2018-11-04T01:03:03.205Z,1014.65
2018-11-04T01:04:03.180Z,1014.66
2018-11-04T01:05:03.208Z,1014.65
2018-11-04T01:06:03.152Z,1014.60
2018-11-04T01:07:03.174Z,1014.60
2018-11-04T01:08:03.133Z,1014.61
2018-11-04T01:09:03.169Z,1014.54
2018-11-04T01:10:03.117Z,1014.59
2018-11-04T01:11:03.096Z,1014.54
2018-11-04T01:12:03.104Z,1014.51
2018-11-04T01:13:03.069Z,1014.53
2018-11-04T01:14:03.070Z,1014.49
2018-11-04T01:15:03.053Z,1014.46
2018-11-04T01:16:03.036Z,1014.42
2018-11-04T01:17:03.051Z,1014.40
2018-11-04T01:18:03.037Z,1014.37
2018-11-04T01:19:03.004Z,1014.35
2018-11-04T01:20:02.992Z,1014.39
2018-11-04T01:21:03.002Z,1014.37
2018-11-04T01:22:02.981Z,1014.40
2018-11-04T01:23:02.980Z,1014.35
2018-11-04T01:24:02.958Z,1014.34
2018-11-04T01:25:02.942Z,1014.29
2018-11-04T01:26:02.928Z,1014.29
2018-11-04T01:27:02.928Z,1014.26
2018-11-04T01:28:02.921Z,1014.27
2018-11-04T01:29:02.906Z,1014.25
2018-11-04T01:30:02.886Z,1014.23
2018-11-04T01:31:02.876Z,1014.23
2018-11-04T01:32:02.862Z,1014.26
2018-11-04T01:33:02.860Z,1014.21
2018-11-04T01:34:02.846Z,1014.19
2018-11-04T01:35:02.836Z,1014.19
2018-11-04T01:36:02.853Z,1014.15
2018-11-04T01:37:02.813Z,1014.14
2018-11-04T01:38:02.799Z,1014.13
2018-11-04T01:39:02.786Z,1014.13
2018-11-04T01:40:02.789Z,1014.14
2018-11-04T01:41:02.776Z,1014.15
2018-11-04T01:42:02.754Z,1014.18
2018-11-04T01:43:02.739Z,1014.15
2018-11-04T01:44:02.739Z,1014.16
2018-11-04T01:45:02.720Z,1014.16
2018-11-04T01:46:02.711Z,1014.14
2018-11-04T01:47:02.754Z,1014.14
2018-11-04T01:48:02.688Z,1014.12
2018-11-04T01:49:02.674Z,1014.12
2018-11-04T01:50:02.672Z,1014.09
2018-11-04T01:51:02.666Z,1014.10
2018-11-04T01:52:02.668Z,1014.11
2018-11-04T01:53:02.632Z,1014.08
2018-11-04T01:54:02.620Z,1014.08
2018-11-04T01:55:02.609Z,1014.06
2018-11-04T01:56:02.611Z,1014.01
2018-11-04T01:57:02.586Z,1013.98
2018-11-04T01:58:02.585Z,1013.96
2018-11-04T01:59:02.566Z,1013.91
2018-11-04T02:00:02.564Z,1013.91
2018-11-04T02:01:02.548Z,1013.89
2018-11-04T02:02:02.532Z,1013.86
2018-11-04T02:03:02.524Z,1013.86
2018-11-04T02:04:02.527Z,1013.91
2018-11-04T02:05:02.519Z,1013.83
2018-11-04T02:06:02.492Z,1013.84
2018-11-04T02:07:02.481Z,1013.82
2018-11-04T02:08:02.463Z,1013.82
2018-11-04T02:09:02.458Z,1013.79
2018-11-04T02:10:02.447Z,1013.77
2018-11-04T02:11:02.435Z,1013.76
2018-11-04T02:12:02.421Z,1013.75
2018-11-04T02:13:02.428Z,1013.72
2018-11-04T02:14:02.398Z,1013.69
2018-11-04T02:15:02.391Z,1013.66
2018-11-04T02:16:02.378Z,1013.66
2018-11-04T02:17:02.368Z,1013.62
2018-11-04T02:18:02.360Z,1013.59
2018-11-04T02:19:02.349Z,1013.59
2018-11-04T02:20:02.334Z,1013.56
2018-11-04T02:21:02.329Z,1013.56
2018-11-04T02:22:02.312Z,1013.49
2018-11-04T02:23:02.325Z,1013.53
2018-11-04T02:24:02.294Z,1013.51
2018-11-04T02:25:02.286Z,1013.46
2018-11-04T02:26:02.288Z,1013.48
2018-11-04T02:27:02.260Z,1013.41
2018-11-04T02:28:02.250Z,1013.45
2018-11-04T02:29:02.242Z,1013.39
2018-11-04T02:30:02.227Z,1013.42
2018-11-04T02:31:02.213Z,1013.36
2018-11-04T02:32:02.204Z,1013.32
2018-11-04T02:33:02.231Z,1013.32
2018-11-04T02:34:02.180Z,1013.29
2018-11-04T02:35:02.170Z,1013.28
2018-11-04T02:36:02.164Z,1013.27
2018-11-04T02:37:02.153Z,1013.29
2018-11-04T02:38:02.149Z,1013.28
2018-11-04T02:39:02.128Z,1013.29
2018-11-04T02:40:02.127Z,1013.28
2018-11-04T02:41:02.116Z,1013.29
2018-11-04T02:42:02.130Z,1013.29
2018-11-04T02:43:02.096Z,1013.28
2018-11-04T02:44:02.084Z,1013.30
2018-11-04T02:45:02.060Z,1013.26
2018-11-04T02:46:02.049Z,1013.26
2018-11-04T02:47:02.123Z,1013.28
2018-11-04T02:48:02.044Z,1013.25
2018-11-04T02:49:02.033Z,1013.26
2018-11-04T02:50:02.037Z,1013.26
2018-11-04T02:51:02.138Z,1013.22
2018-11-04T02:52:02.049Z,1013.24
2018-11-04T02:53:01.978Z,1013.23
2018-11-04T02:54:02.013Z,1013.20
2018-11-04T02:55:01.964Z,1013.20
2018-11-04T02:56:01.975Z,1013.16
2018-11-04T02:57:01.935Z,1013.13
2018-11-04T02:58:01.918Z,1013.17
2018-11-04T02:59:01.916Z,1013.17
2018-11-04T03:00:01.904Z,1013.15
2018-11-04T03:01:01.900Z,1013.16
2018-11-04T03:02:01.986Z,1013.15
2018-11-04T03:03:01.866Z,1013.11
2018-11-04T03:04:01.854Z,1013.10
2018-11-04T03:05:01.868Z,1013.09
2018-11-04T03:06:01.847Z,1013.06
2018-11-04T03:07:01.847Z,1013.05
2018-11-04T03:08:01.811Z,1013.01
2018-11-04T03:09:01.804Z,1013.02
2018-11-04T03:10:01.788Z,1012.95
2018-11-04T03:11:01.790Z,1012.94
2018-11-04T03:12:01.760Z,1012.88
2018-11-04T03:13:01.764Z,1012.88
2018-11-04T03:14:01.742Z,1012.85
2018-11-04T03:15:01.731Z,1012.90
2018-11-04T03:16:01.718Z,1012.92
2018-11-04T03:17:01.708Z,1012.87
2018-11-04T03:18:01.706Z,1012.86
2018-11-04T03:19:01.694Z,1012.82
2018-11-04T03:20:01.695Z,1012.84
2018-11-04T03:21:01.662Z,1012.84
2018-11-04T03:22:01.664Z,1012.79
2018-11-04T03:23:01.691Z,1012.79
2018-11-04T03:24:01.637Z,1012.80
2018-11-04T03:25:01.643Z,1012.78
2018-11-04T03:26:01.612Z,1012.78
2018-11-04T03:27:01.604Z,1012.77
2018-11-04T03:28:01.589Z,1012.78
2018-11-04T03:29:01.575Z,1012.74
2018-11-04T03:30:01.585Z,1012.73
2018-11-04T03:31:01.558Z,1012.72
2018-11-04T03:32:01.550Z,1012.70
2018-11-04T03:33:01.537Z,1012.70
2018-11-04T03:34:01.524Z,1012.70
2018-11-04T03:35:01.506Z,1012.72
2018-11-04T03:36:01.509Z,1012.66
2018-11-04T03:37:01.488Z,1012.63
2018-11-04T03:38:01.490Z,1012.60
2018-11-04T03:39:01.467Z,1012.58
2018-11-04T03:40:01.471Z,1012.55
2018-11-04T03:41:01.448Z,1012.57
2018-11-04T03:42:01.437Z,1012.58
2018-11-04T03:43:01.419Z,1012.62
2018-11-04T03:44:01.408Z,1012.61
2018-11-04T03:45:01.402Z,1012.66
2018-11-04T03:46:01.391Z,1012.68
2018-11-04T03:47:01.382Z,1012.69
2018-11-04T03:48:01.373Z,1012.70
2018-11-04T03:49:01.357Z,1012.73
2018-11-04T03:50:01.344Z,1012.74
2018-11-04T03:51:01.337Z,1012.69
2018-11-04T03:52:01.323Z,1012.73
2018-11-04T03:53:01.322Z,1012.71
2018-11-04T03:54:01.297Z,1012.71
2018-11-04T03:55:01.297Z,1012.66
2018-11-04T03:56:01.278Z,1012.72
2018-11-04T03:57:01.287Z,1012.70
2018-11-04T03:58:01.276Z,1012.72
2018-11-04T03:59:01.269Z,1012.73
2018-11-04T04:00:01.233Z,1012.78
2018-11-04T04:01:01.230Z,1012.73
2018-11-04T04:02:01.211Z,1012.76
2018-11-04T04:03:01.199Z,1012.73
2018-11-04T04:04:01.191Z,1012.73
2018-11-04T04:05:01.197Z,1012.70
2018-11-04T04:06:01.176Z,1012.69
2018-11-04T04:07:01.167Z,1012.66
2018-11-04T04:08:01.146Z,1012.66
2018-11-04T04:09:01.137Z,1012.66
2018-11-04T04:10:01.133Z,1012.66
2018-11-04T04:11:01.122Z,1012.69
2018-11-04T04:12:01.102Z,1012.67
2018-11-04T04:13:01.099Z,1012.66
2018-11-04T04:14:01.086Z,1012.65
2018-11-04T04:15:01.074Z,1012.61
2018-11-04T04:16:01.065Z,1012.62
2018-11-04T04:17:01.052Z,1012.66
2018-11-04T04:18:01.045Z,1012.68
2018-11-04T04:19:01.029Z,1012.68
2018-11-04T04:20:01.022Z,1012.71
2018-11-04T04:21:01.034Z,1012.68
2018-11-04T04:22:00.995Z,1012.68
2018-11-04T04:23:00.982Z,1012.70
2018-11-04T04:24:00.977Z,1012.63
2018-11-04T04:25:00.961Z,1012.68
2018-11-04T04:26:00.948Z,1012.64
2018-11-04T04:27:00.964Z,1012.66
2018-11-04T04:28:00.931Z,1012.69
2018-11-04T04:29:00.935Z,1012.66
2018-11-04T04:30:00.907Z,1012.63
2018-11-04T04:31:00.894Z,1012.62
2018-11-04T04:32:00.882Z,1012.60
2018-11-04T04:33:00.875Z,1012.60
2018-11-04T04:34:00.866Z,1012.61
2018-11-04T04:35:00.853Z,1012.58
2018-11-04T04:36:00.846Z,1012.58
2018-11-04T04:37:00.828Z,1012.58
2018-11-04T04:38:00.818Z,1012.58
2018-11-04T04:39:00.809Z,1012.54
2018-11-04T04:40:00.799Z,1012.48
2018-11-04T04:41:00.784Z,1012.49
2018-11-04T04:42:00.799Z,1012.44
2018-11-04T04:43:00.765Z,1012.43
2018-11-04T04:44:00.762Z,1012.38
2018-11-04T04:45:00.746Z,1012.35
2018-11-04T04:46:00.727Z,1012.40
2018-11-04T04:47:00.718Z,1012.38
2018-11-04T04:48:00.708Z,1012.37
2018-11-04T04:49:00.702Z,1012.35
2018-11-04T04:50:00.709Z,1012.35
2018-11-04T04:51:00.680Z,1012.35
2018-11-04T04:52:00.665Z,1012.36
2018-11-04T04:53:00.662Z,1012.39
2018-11-04T04:54:00.641Z,1012.33
2018-11-04T04:55:00.644Z,1012.35
2018-11-04T04:56:00.631Z,1012.35
2018-11-04T04:57:00.622Z,1012.38
2018-11-04T04:58:00.597Z,1012.39
2018-11-04T04:59:00.586Z,1012.35
2018-11-04T05:00:00.582Z,1012.36
2018-11-04T05:01:00.578Z,1012.41
2018-11-04T05:02:00.582Z,1012.37
2018-11-04T05:03:00.579Z,1012.37
2018-11-04T05:04:00.535Z,1012.35
2018-11-04T05:05:00.544Z,1012.37
2018-11-04T05:06:00.511Z,1012.34
2018-11-04T05:07:00.506Z,1012.32
2018-11-04T05:08:00.486Z,1012.32
2018-11-04T05:09:00.488Z,1012.27
2018-11-04T05:10:00.470Z,1012.26
2018-11-04T05:11:00.472Z,1012.22
2018-11-04T05:12:00.446Z,1012.23
2018-11-04T05:13:00.443Z,1012.19
2018-11-04T05:14:00.420Z,1012.19
2018-11-04T05:15:00.415Z,1012.21
2018-11-04T05:16:00.404Z,1012.22
2018-11-04T05:17:00.394Z,1012.19
2018-11-04T05:18:00.384Z,1012.21
2018-11-04T05:19:00.376Z,1012.18
2018-11-04T05:20:00.361Z,1012.20
2018-11-04T05:21:00.345Z,1012.28
2018-11-04T05:22:00.338Z,1012.27
2018-11-04T05:23:00.324Z,1012.23
2018-11-04T05:24:00.313Z,1012.24
2018-11-04T05:25:00.318Z,1012.17
2018-11-04T05:26:00.323Z,1012.17
2018-11-04T05:27:00.282Z,1012.12
2018-11-04T05:28:00.272Z,1012.13
2018-11-04T05:29:00.260Z,1012.13
2018-11-04T05:30:00.256Z,1012.13
2018-11-04T05:31:00.238Z,1012.17
2018-11-04T05:32:00.228Z,1012.18
2018-11-04T05:33:00.218Z,1012.22
2018-11-04T05:34:00.210Z,1012.23
2018-11-04T05:35:00.197Z,1012.21
2018-11-04T05:36:00.191Z,1012.19
2018-11-04T05:37:00.173Z,1012.19
2018-11-04T05:38:00.162Z,1012.20
2018-11-04T05:39:00.149Z,1012.20
2018-11-04T05:40:00.137Z,1012.21
2018-11-04T05:41:00.158Z,1012.25
2018-11-04T05:42:00.125Z,1012.20
2018-11-04T05:43:00.103Z,1012.17
2018-11-04T05:44:00.097Z,1012.19
2018-11-04T05:45:00.085Z,1012.18
2018-11-04T05:46:00.075Z,1012.17
2018-11-04T05:47:00.088Z,1012.21
2018-11-04T05:48:00.063Z,1012.19
2018-11-04T05:49:00.041Z,1012.21
2018-11-04T05:50:00.029Z,1012.19
2018-11-04T05:51:00.027Z,1012.18
2018-11-04T05:52:00.009Z,1012.15
2018-11-04T05:53:00.009Z,1012.14
2018-11-04T05:53:59.983Z,1012.14
2018-11-04T05:54:59.979Z,1012.14
2018-11-04T05:55:59.966Z,1012.08
2018-11-04T05:56:59.967Z,1012.10
2018-11-04T05:57:59.939Z,1012.13
2018-11-04T05:58:59.951Z,1012.16
2018-11-04T05:59:59.918Z,1012.11
2018-11-04T06:00:59.940Z,1012.12
2018-11-04T06:01:59.899Z,1012.08
2018-11-04T06:02:59.886Z,1012.04
2018-11-04T06:03:59.876Z,1012.12
2018-11-04T06:04:59.872Z,1012.14
2018-11-04T06:05:59.858Z,1012.11
2018-11-04T06:06:59.861Z,1012.09
2018-11-04T06:07:59.833Z,1012.12
2018-11-04T06:08:59.821Z,1012.09
2018-11-04T06:09:59.818Z,1012.09
2018-11-04T06:10:59.813Z,1012.07
2018-11-04T06:11:59.801Z,1012.10
2018-11-04T06:12:59.832Z,1012.09
2018-11-04T06:13:59.773Z,1012.03
2018-11-04T06:14:59.773Z,1012.09
2018-11-04T06:15:59.759Z,1012.12
2018-11-04T06:16:59.740Z,1012.12
2018-11-04T06:17:59.729Z,1012.07
2018-11-04T06:18:59.745Z,1012.07
2018-11-04T06:19:59.709Z,1012.06
2018-11-04T06:20:59.709Z,1012.03
2018-11-04T06:21:59.690Z,1012.01
2018-11-04T06:22:59.695Z,1012.07
2018-11-04T06:23:59.682Z,1012.08
2018-11-04T06:24:59.650Z,1012.05
2018-11-04T06:25:59.640Z,1012.06
2018-11-04T06:26:59.637Z,1012.01
2018-11-04T06:27:59.625Z,1012.04
2018-11-04T06:28:59.637Z,1012.04
2018-11-04T06:29:59.603Z,1012.02
2018-11-04T06:30:59.592Z,1012.04
2018-11-04T06:31:59.578Z,1012.01
2018-11-04T06:32:59.566Z,1011.99
2018-11-04T06:33:59.560Z,1011.99
2018-11-04T06:34:59.549Z,1012.00
2018-11-04T06:35:59.528Z,1011.96
2018-11-04T06:36:59.522Z,1011.96
2018-11-04T06:37:59.509Z,1011.91
2018-11-04T06:38:59.510Z,1011.90
2018-11-04T06:39:59.492Z,1011.93
2018-11-04T06:40:59.550Z,1011.93
2018-11-04T06:41:59.504Z,1011.92
2018-11-04T06:42:59.456Z,1011.96
2018-11-04T06:43:59.446Z,1011.91
2018-11-04T06:44:59.466Z,1011.92
2018-11-04T06:45:59.428Z,1011.96
2018-11-04T06:46:59.476Z,1012.01
2018-11-04T06:47:59.404Z,1011.98
2018-11-04T06:48:59.402Z,1011.97
2018-11-04T06:49:59.385Z,1012.02
2018-11-04T06:50:59.394Z,1012.06
2018-11-04T06:51:59.363Z,1012.04
2018-11-04T06:52:59.376Z,1012.04
2018-11-04T06:53:59.337Z,1012.04
2018-11-04T06:54:59.337Z,1012.03
2018-11-04T06:55:59.318Z,1012.04
2018-11-04T06:56:59.313Z,1012.08
2018-11-04T06:57:59.326Z,1012.11
2018-11-04T06:58:59.289Z,1012.08
2018-11-04T06:59:59.381Z,1012.11
2018-11-04T07:00:59.277Z,1012.11
2018-11-04T07:01:59.253Z,1012.14
2018-11-04T07:02:59.256Z,1012.12
2018-11-04T07:03:59.235Z,1012.06
2018-11-04T07:04:59.240Z,1012.04
2018-11-04T07:05:59.221Z,1012.04
2018-11-04T07:06:59.220Z,1012.04
2018-11-04T07:07:59.197Z,1012.01
2018-11-04T07:08:59.249Z,1011.95
2018-11-04T07:09:59.175Z,1011.98
2018-11-04T07:10:59.172Z,1012.00
2018-11-04T07:11:59.147Z,1011.98
2018-11-04T07:12:59.142Z,1011.95
2018-11-04T07:13:59.133Z,1011.92
2018-11-04T07:14:59.120Z,1011.90
2018-11-04T07:15:59.118Z,1011.98
2018-11-04T07:16:59.105Z,1011.97
2018-11-04T07:17:59.083Z,1011.98
2018-11-04T07:18:59.082Z,1011.93
2018-11-04T07:19:59.098Z,1011.91
2018-11-04T07:20:59.054Z,1011.92
2018-11-04T07:21:59.073Z,1011.92
2018-11-04T07:22:59.041Z,1011.91
2018-11-04T07:23:59.030Z,1011.97
2018-11-04T07:24:59.011Z,1011.94
2018-11-04T07:25:59.016Z,1011.89
2018-11-04T07:26:58.993Z,1011.91
2018-11-04T07:27:58.982Z,1011.97
2018-11-04T07:28:58.979Z,1011.96
2018-11-04T07:29:58.968Z,1011.93
2018-11-04T07:30:58.955Z,1011.89
2018-11-04T07:31:58.997Z,1011.89
2018-11-04T07:32:58.944Z,1011.88
2018-11-04T07:33:58.915Z,1011.91
2018-11-04T07:34:58.905Z,1011.93
2018-11-04T07:35:58.903Z,1011.95
2018-11-04T07:36:58.888Z,1011.97
2018-11-04T07:37:58.885Z,1011.97
2018-11-04T07:38:58.890Z,1011.98
2018-11-04T07:39:58.853Z,1011.91
2018-11-04T07:40:58.842Z,1011.96
2018-11-04T07:41:58.849Z,1011.92
2018-11-04T07:42:58.834Z,1011.92
2018-11-04T07:43:58.820Z,1011.93
2018-11-04T07:44:58.805Z,1011.92
2018-11-04T07:45:58.792Z,1011.94
2018-11-04T07:46:58.782Z,1011.96
2018-11-04T07:47:58.787Z,1011.92
2018-11-04T07:48:58.764Z,1011.90
2018-11-04T07:49:58.755Z,1011.90
2018-11-04T07:50:58.756Z,1011.88
2018-11-04T07:51:58.731Z,1011.91
2018-11-04T07:52:58.729Z,1011.89
2018-11-04T07:53:58.724Z,1011.93
2018-11-04T07:54:58.701Z,1011.88
2018-11-04T07:55:58.701Z,1011.89
2018-11-04T07:56:58.743Z,1011.84
2018-11-04T07:57:58.669Z,1011.85
2018-11-04T07:58:58.663Z,1011.83
2018-11-04T07:59:58.659Z,1011.85
2018-11-04T08:00:58.755Z,1011.77
2018-11-04T08:01:58.639Z,1011.76
2018-11-04T08:02:58.626Z,1011.78
2018-11-04T08:03:58.613Z,1011.77
2018-11-04T08:04:58.605Z,1011.74
2018-11-04T08:05:58.599Z,1011.75
2018-11-04T08:06:58.580Z,1011.76
2018-11-04T08:07:58.573Z,1011.76
2018-11-04T08:08:58.609Z,1011.74
2018-11-04T08:09:58.552Z,1011.70
2018-11-04T08:10:58.545Z,1011.71
2018-11-04T08:11:58.539Z,1011.75
2018-11-04T08:12:58.527Z,1011.73
2018-11-04T08:13:58.516Z,1011.76
2018-11-04T08:14:58.499Z,1011.71
2018-11-04T08:15:58.502Z,1011.68
2018-11-04T08:16:58.484Z,1011.67
2018-11-04T08:17:58.473Z,1011.67
2018-11-04T08:18:58.463Z,1011.69
2018-11-04T08:19:58.454Z,1011.69
2018-11-04T08:20:58.449Z,1011.64
2018-11-04T08:21:58.443Z,1011.71
2018-11-04T08:22:58.421Z,1011.65
2018-11-04T08:23:58.417Z,1011.64
2018-11-04T08:24:58.403Z,1011.65
2018-11-04T08:25:58.390Z,1011.66
2018-11-04T08:26:58.386Z,1011.66
2018-11-04T08:27:58.400Z,1011.64
2018-11-04T08:28:58.365Z,1011.62
2018-11-04T08:29:58.351Z,1011.62
2018-11-04T08:30:58.344Z,1011.65
2018-11-04T08:31:58.338Z,1011.67
2018-11-04T08:32:58.322Z,1011.66
2018-11-04T08:33:58.318Z,1011.61
2018-11-04T08:34:58.306Z,1011.61
2018-11-04T08:35:58.303Z,1011.58
2018-11-04T08:36:58.293Z,1011.56
2018-11-04T08:37:58.288Z,1011.55
2018-11-04T08:38:58.265Z,1011.54
2018-11-04T08:39:58.377Z,1011.54
2018-11-04T08:40:58.246Z,1011.53
2018-11-04T08:41:58.235Z,1011.51
2018-11-04T08:42:58.224Z,1011.51
2018-11-04T08:43:59.101Z,1011.48
2018-11-04T08:44:58.203Z,1011.45
2018-11-04T08:45:58.323Z,1011.42
2018-11-04T08:46:58.185Z,1011.41
2018-11-04T08:47:58.181Z,1011.42
2018-11-04T08:48:58.167Z,1011.40
2018-11-04T08:49:58.157Z,1011.45
2018-11-04T08:50:58.148Z,1011.45
2018-11-04T08:51:58.136Z,1011.48
2018-11-04T08:52:58.131Z,1011.48
2018-11-04T08:53:58.118Z,1011.45
2018-11-04T08:54:58.116Z,1011.47
2018-11-04T08:55:58.162Z,1011.48
2018-11-04T08:56:58.089Z,1011.50
2018-11-04T08:57:58.079Z,1011.46
2018-11-04T08:58:58.081Z,1011.44
2018-11-04T08:59:58.086Z,1011.43
2018-11-04T09:00:58.051Z,1011.43
2018-11-04T09:01:58.038Z,1011.42
2018-11-04T09:02:58.050Z,1011.40
2018-11-04T09:03:58.023Z,1011.38
2018-11-04T09:04:58.011Z,1011.40
2018-11-04T09:05:58.000Z,1011.40
2018-11-04T09:06:58.009Z,1011.36
2018-11-04T09:07:57.981Z,1011.37
2018-11-04T09:08:57.989Z,1011.31
2018-11-04T09:09:57.967Z,1011.30
2018-11-04T09:10:57.953Z,1011.31
2018-11-04T09:11:58.598Z,1011.32
2018-11-04T09:12:57.940Z,1011.31
2018-11-04T09:13:57.924Z,1011.29
2018-11-04T09:14:57.917Z,1011.27
2018-11-04T09:15:57.907Z,1011.30
2018-11-04T09:16:57.895Z,1011.25
2018-11-04T09:17:57.882Z,1011.27
2018-11-04T09:18:57.882Z,1011.22
2018-11-04T09:19:57.877Z,1011.25
2018-11-04T09:20:57.858Z,1011.25
2018-11-04T09:21:58.000Z,1011.23
2018-11-04T09:22:57.836Z,1011.19
2018-11-04T09:23:57.835Z,1011.19
2018-11-04T09:24:57.825Z,1011.17
2018-11-04T09:25:57.815Z,1011.19
2018-11-04T09:26:57.800Z,1011.18
2018-11-04T09:27:57.795Z,1011.18
2018-11-04T09:28:57.922Z,1011.19
2018-11-04T09:29:57.774Z,1011.18
2018-11-04T09:30:57.767Z,1011.22
2018-11-04T09:31:57.758Z,1011.21
2018-11-04T09:32:57.745Z,1011.17
2018-11-04T09:33:57.757Z,1011.20
2018-11-04T09:34:57.808Z,1011.15
2018-11-04T09:35:57.778Z,1011.15
2018-11-04T09:36:57.713Z,1011.17
2018-11-04T09:37:57.699Z,1011.14
2018-11-04T09:38:57.741Z,1011.09
2018-11-04T09:39:57.680Z,1011.07
2018-11-04T09:40:57.669Z,1011.08
2018-11-04T09:41:57.673Z,1011.08
2018-11-04T09:42:57.653Z,1011.07
2018-11-04T09:43:57.667Z,1011.08
2018-11-04T09:44:57.646Z,1011.14
2018-11-04T09:45:57.629Z,1011.06
2018-11-04T09:46:57.711Z,1011.07
2018-11-04T09:47:57.614Z,1011.09
2018-11-04T09:48:57.597Z,1011.07
2018-11-04T09:49:57.672Z,1011.10
2018-11-04T09:50:57.600Z,1011.06
2018-11-04T09:51:57.570Z,1011.08
2018-11-04T09:52:57.568Z,1011.05
2018-11-04T09:53:57.567Z,1011.05
2018-11-04T09:54:57.542Z,1011.06
2018-11-04T09:55:57.540Z,1011.03
2018-11-04T09:56:57.533Z,1011.05
2018-11-04T09:57:57.519Z,1011.08
2018-11-04T09:58:57.507Z,1011.12
2018-11-04T09:59:57.500Z,1011.09
2018-11-04T10:00:57.510Z,1011.09
2018-11-04T10:01:57.488Z,1011.11
2018-11-04T10:02:57.481Z,1011.13
2018-11-04T10:03:57.471Z,1011.10
2018-11-04T10:04:57.453Z,1011.12
2018-11-04T10:05:57.449Z,1011.13
2018-11-04T10:06:57.489Z,1011.09
2018-11-04T10:07:57.430Z,1011.06
2018-11-04T10:08:57.441Z,1011.04
2018-11-04T10:09:57.411Z,1011.03
2018-11-04T10:10:57.425Z,1011.03
2018-11-04T10:11:57.396Z,1011.03
2018-11-04T10:12:57.381Z,1011.05
2018-11-04T10:13:57.376Z,1011.05
2018-11-04T10:14:57.369Z,1011.05
2018-11-04T10:15:57.809Z,1011.03
2018-11-04T10:16:58.773Z,1011.02
2018-11-04T10:17:57.335Z,1011.05
2018-11-04T10:18:57.436Z,1011.06
2018-11-04T10:19:57.593Z,1011.08
2018-11-04T10:20:57.708Z,1011.07
2018-11-04T10:21:57.324Z,1011.08
2018-11-04T10:22:57.322Z,1011.11
2018-11-04T10:23:57.311Z,1011.10
2018-11-04T10:24:57.289Z,1011.08
2018-11-04T10:25:57.276Z,1011.10
2018-11-04T10:26:57.291Z,1011.04
2018-11-04T10:27:57.249Z,1011.05
2018-11-04T10:28:57.244Z,1011.05
2018-11-04T10:29:57.262Z,1011.04
2018-11-04T10:30:57.225Z,1011.05
2018-11-04T10:31:57.266Z,1011.05
2018-11-04T10:32:57.255Z,1011.03
2018-11-04T10:33:57.234Z,1011.04
2018-11-04T10:34:57.195Z,1011.02
2018-11-04T10:35:57.210Z,1010.99
2018-11-04T10:36:57.190Z,1010.96
2018-11-04T10:37:57.166Z,1011.00
2018-11-04T10:38:57.188Z,1010.98
2018-11-04T10:39:57.151Z,1010.96
2018-11-04T10:40:57.145Z,1010.93
2018-11-04T10:41:57.136Z,1010.92
2018-11-04T10:42:57.126Z,1010.87
2018-11-04T10:43:57.122Z,1010.88
2018-11-04T10:44:57.111Z,1010.86
2018-11-04T10:45:57.100Z,1010.83
2018-11-04T10:46:57.095Z,1010.86
2018-11-04T10:47:57.089Z,1010.85
2018-11-04T10:48:57.075Z,1010.85
2018-11-04T10:49:57.161Z,1010.86
2018-11-04T10:50:57.073Z,1010.83
2018-11-04T10:51:57.049Z,1010.83
2018-11-04T10:52:57.039Z,1010.85
2018-11-04T10:53:57.035Z,1010.84
2018-11-04T10:54:57.022Z,1010.83
2018-11-04T10:55:57.162Z,1010.81
2018-11-04T10:56:57.041Z,1010.79
2018-11-04T10:57:57.002Z,1010.78
2018-11-04T10:58:56.990Z,1010.77
2018-11-04T10:59:56.984Z,1010.72
2018-11-04T11:00:56.976Z,1010.75
2018-11-04T11:01:56.966Z,1010.73
2018-11-04T11:02:56.958Z,1010.71
2018-11-04T11:03:56.967Z,1010.64
2018-11-04T11:04:57.663Z,1010.61
2018-11-04T11:05:56.937Z,1010.61
2018-11-04T11:06:56.930Z,1010.57
2018-11-04T11:07:56.931Z,1010.54
2018-11-04T11:08:56.911Z,1010.52
2018-11-04T11:09:56.915Z,1010.51
2018-11-04T11:10:56.946Z,1010.49
2018-11-04T11:11:57.646Z,1010.48
2018-11-04T11:12:56.887Z,1010.46
2018-11-04T11:13:56.877Z,1010.44
2018-11-04T11:14:56.863Z,1010.45
2018-11-04T11:15:56.854Z,1010.44
2018-11-04T11:16:56.859Z,1010.40
2018-11-04T11:17:56.837Z,1010.40
2018-11-04T11:18:56.830Z,1010.39
2018-11-04T11:19:56.820Z,1010.34
2018-11-04T11:20:56.814Z,1010.38
2018-11-04T11:21:56.801Z,1010.35
2018-11-04T11:22:56.949Z,1010.32
2018-11-04T11:23:56.794Z,1010.34
2018-11-04T11:24:56.793Z,1010.30
2018-11-04T11:25:56.769Z,1010.30
2018-11-04T11:26:56.777Z,1010.30
2018-11-04T11:27:56.758Z,1010.28
2018-11-04T11:28:56.754Z,1010.26
2018-11-04T11:29:56.751Z,1010.26
2018-11-04T11:30:56.734Z,1010.26
2018-11-04T11:31:56.723Z,1010.25
2018-11-04T11:32:56.711Z,1010.22
2018-11-04T11:33:56.705Z,1010.23
2018-11-04T11:34:56.698Z,1010.21
2018-11-04T11:35:56.686Z,1010.22
2018-11-04T11:36:56.689Z,1010.19
2018-11-04T11:37:56.729Z,1010.18
2018-11-04T11:38:56.674Z,1010.09
2018-11-04T11:39:56.653Z,1010.11
2018-11-04T11:40:56.650Z,1010.10
2018-11-04T11:41:56.639Z,1010.08
2018-11-04T11:42:56.630Z,1010.07
2018-11-04T11:43:56.625Z,1010.01
2018-11-04T11:44:56.695Z,1010.00
2018-11-04T11:45:56.650Z,1009.98
2018-11-04T11:46:56.605Z,1010.01
2018-11-04T11:47:56.596Z,1009.95
2018-11-04T11:48:56.866Z,1009.94
2018-11-04T11:49:56.598Z,1009.92
2018-11-04T11:50:56.759Z,1009.92
2018-11-04T11:51:56.563Z,1009.90
2018-11-04T11:52:56.552Z,1009.91
2018-11-04T11:53:56.549Z,1009.90
2018-11-04T11:54:56.538Z,1009.88
2018-11-04T11:55:56.530Z,1009.89
2018-11-04T11:56:56.519Z,1009.90
2018-11-04T11:57:56.516Z,1009.88
2018-11-04T11:58:56.506Z,1009.87
2018-11-04T11:59:56.494Z,1009.88
2018-11-04T12:00:56.493Z,1009.82
2018-11-04T12:01:56.481Z,1009.83
2018-11-04T12:02:56.473Z,1009.79
2018-11-04T12:03:56.466Z,1009.81
2018-11-04T12:04:56.471Z,1009.81